Tidworth, United Kingdom
Current Conditions -  °F | °C
As of 7:50 PM on Friday 28 Nov 2014 (Local Time) from EGDM Reporting Station
Light Rain Light Rain  
Wind Chill: 50°   Ceiling: 8000
Heat Index: 50°   Visibility: 6mi
Dew Point: 48°   Wind: 14mph
Humidity: 94%   Direction: 80°E
Pressure: 29.65"   Gusts: NA
Location:  51.23°N, 1.67°W
Report Text: EGDM 281950Z AUTO 08012KT 9000 -RADZ BKN080/// 10/09 Q1004
Loading
Personal Weather Stations






























Interactive Weather Map New forecast layout! Learn more

10-Day Weather Forecast

Advertisements
Track Severe Weather on mobile